Time;durP1;ratioP1;P1;durP2;ratioP2;P2;SDS_P1;SDS_P2;PMS_P1;PMS_P2;Temp;Humidity;BMP_temperature;BMP_pressure;BME280_temperature;BME280_humidity;BME280_pressure;Samples;Min_cycle;Max_cycle;Signal;HPM_P1;HPM_P2
2022/01/02 00:00:29;;;;;;;1.35;1.25;;;;;18.90;100704.00;;;;2070160;28;20209;-54
2022/01/02 00:01:29;;;;;;;1.00;0.87;;;;;18.90;100697.00;;;;2079686;28;20209;-54
2022/01/02 00:02:29;;;;;;;1.20;1.10;;;;;18.90;100702.00;;;;2086847;28;20312;-54
2022/01/02 00:03:33;;;;;;;1.10;1.00;;;;;18.90;100688.00;;;;2076164;28;20209;-54
2022/01/02 00:04:34;;;;;;;1.08;0.98;;;;;18.90;100678.00;;;;2086969;28;20221;-54
2022/01/02 00:05:36;;;;;;;1.20;1.10;;;;;18.90;100683.00;;;;2071030;28;20256;-54
2022/01/02 00:06:36;;;;;;;1.40;1.30;;;;;18.90;100688.00;;;;2065533;28;20605;-54
2022/01/02 00:07:50;;;;;;;1.30;1.20;;;;;18.90;100689.00;;;;2073791;28;20225;-54
2022/01/02 00:08:55;;;;;;;1.25;1.15;;;;;18.90;100691.00;;;;2066101;28;20214;-54
2022/01/02 00:09:55;;;;;;;1.30;1.13;;;;;18.90;100690.00;;;;2082404;28;20224;-54
2022/01/02 00:10:59;;;;;;;1.03;0.93;;;;;18.90;100686.00;;;;2084465;28;20216;-54
2022/01/02 00:12:26;;;;;;;1.40;1.30;;;;;18.90;100688.00;;;;2086890;28;20208;-54
2022/01/02 00:13:31;;;;;;;1.38;1.20;;;;;18.90;100678.00;;;;2074600;28;20223;-54
2022/01/02 00:14:34;;;;;;;1.20;1.10;;;;;18.90;100683.00;;;;2087300;28;20366;-54
2022/01/02 00:15:35;;;;;;;1.40;1.30;;;;;18.90;100673.00;;;;2087970;28;20266;-54
2022/01/02 00:16:36;;;;;;;1.30;1.20;;;;;18.90;100681.00;;;;2083386;28;20236;-54
2022/01/02 00:17:36;;;;;;;1.30;1.20;;;;;18.90;100664.00;;;;2086866;28;20315;-54
2022/01/02 00:18:39;;;;;;;1.30;1.20;;;;;18.90;100673.00;;;;2076995;28;20209;-54
2022/01/02 00:19:45;;;;;;;1.38;1.27;;;;;18.90;100674.00;;;;2079359;28;20621;-54
2022/01/02 00:20:47;;;;;;;1.30;1.20;;;;;18.90;100671.00;;;;2087058;28;20216;-54
2022/01/02 00:21:48;;;;;;;1.10;1.00;;;;;18.90;100669.00;;;;2087298;28;20672;-54
2022/01/02 00:22:51;;;;;;;1.33;1.17;;;;;18.90;100673.00;;;;2087874;28;20224;-54
2022/01/02 00:23:59;;;;;;;1.10;1.00;;;;;18.90;100677.00;;;;2078987;28;20209;-54
2022/01/02 00:24:59;;;;;;;1.30;1.10;;;;;18.90;100681.00;;;;2080096;28;20681;-54
2022/01/02 00:26:05;;;;;;;1.10;1.00;;;;;18.90;100696.00;;;;2087173;28;20211;-55
2022/01/02 00:27:05;;;;;;;1.10;1.00;;;;;18.90;100673.00;;;;2087805;28;20733;-54
2022/01/02 00:28:06;;;;;;;1.00;0.90;;;;;18.90;100681.00;;;;2087269;28;20350;-54
2022/01/02 00:29:06;;;;;;;1.13;1.03;;;;;18.90;100681.00;;;;2086848;28;20216;-54
2022/01/02 00:30:07;;;;;;;1.30;1.20;;;;;18.90;100682.00;;;;2087726;28;20213;-54
2022/01/02 00:31:07;;;;;;;1.43;1.23;;;;;18.90;100685.00;;;;2087797;28;20652;-54
2022/01/02 00:32:08;;;;;;;1.10;1.00;;;;;18.90;100681.00;;;;2087117;28;20209;-54
2022/01/02 00:33:09;;;;;;;1.02;0.93;;;;;18.90;100678.00;;;;2076028;28;20312;-54
2022/01/02 00:34:09;;;;;;;1.13;1.03;;;;;18.90;100684.00;;;;2087714;28;20270;-54
2022/01/02 00:35:10;;;;;;;1.40;1.30;;;;;18.90;100659.00;;;;2087829;28;20205;-54
2022/01/02 00:36:10;;;;;;;1.30;1.20;;;;;18.90;100679.00;;;;2087006;28;20244;-54
2022/01/02 00:37:10;;;;;;;1.30;1.20;;;;;18.90;100672.00;;;;2087026;28;20205;-54
2022/01/02 00:38:16;;;;;;;1.03;0.87;;;;;18.90;100670.00;;;;2087731;28;20239;-54
2022/01/02 00:39:17;;;;;;;1.17;1.08;;;;;18.90;100669.00;;;;2087150;28;20847;-53
2022/01/02 00:40:17;;;;;;;1.23;1.10;;;;;18.90;100669.00;;;;2087090;28;20220;-54
2022/01/02 00:41:23;;;;;;;1.23;1.13;;;;;18.90;100662.00;;;;2087640;28;20447;-54
2022/01/02 00:42:31;;;;;;;1.25;1.10;;;;;18.90;100668.00;;;;2087985;28;20285;-53
2022/01/02 00:43:45;;;;;;;1.10;1.00;;;;;18.90;100674.00;;;;2087514;28;20205;-54
2022/01/02 00:44:51;;;;;;;1.30;1.20;;;;;18.90;100674.00;;;;2087131;28;20767;-54
2022/01/02 00:45:52;;;;;;;1.30;1.17;;;;;18.90;100675.00;;;;2087191;28;20217;-54
2022/01/02 00:46:57;;;;;;;1.33;1.20;;;;;18.90;100669.00;;;;2086070;28;20690;-54
2022/01/02 00:48:18;;;;;;;1.30;1.17;;;;;18.90;100670.00;;;;2060742;28;20360;-55
2022/01/02 00:49:24;;;;;;;1.23;1.13;;;;;18.90;100668.00;;;;2087222;28;20224;-54
2022/01/02 00:50:37;;;;;;;1.70;1.20;;;;;18.90;100658.00;;;;2086905;28;20292;-54
2022/01/02 00:51:46;;;;;;;1.30;1.20;;;;;18.90;100660.00;;;;2087423;28;20296;-54
2022/01/02 00:52:48;;;;;;;1.20;1.10;;;;;18.90;100659.00;;;;2087159;28;20375;-54
2022/01/02 00:53:48;;;;;;;1.10;1.00;;;;;18.90;100656.00;;;;2087195;28;25034;-54
2022/01/02 00:54:48;;;;;;;0.90;0.90;;;;;18.90;100662.00;;;;2087011;28;20227;-54
2022/01/02 00:55:49;;;;;;;1.20;1.10;;;;;18.90;100654.00;;;;2079706;28;20229;-54
2022/01/02 00:56:50;;;;;;;1.10;1.00;;;;;18.90;100665.00;;;;2080031;28;20241;-54
2022/01/02 00:58:10;;;;;;;1.30;1.20;;;;;18.90;100665.00;;;;2080274;28;20266;-54
2022/01/02 00:59:25;;;;;;;1.15;1.05;;;;;18.90;100671.00;;;;2072725;28;20464;-54
2022/01/02 01:00:25;;;;;;;1.30;1.20;;;;;18.90;100676.00;;;;2065177;28;20306;-54
2022/01/02 01:01:28;;;;;;;0.90;0.90;;;;;18.90;100680.00;;;;2072027;28;20222;-54
2022/01/02 01:02:33;;;;;;;1.30;1.10;;;;;18.90;100686.00;;;;2088189;28;20228;-54
2022/01/02 01:03:34;;;;;;;1.50;1.40;;;;;18.90;100682.00;;;;2089052;28;20316;-54
2022/01/02 01:04:34;;;;;;;1.10;1.00;;;;;18.90;100684.00;;;;2089346;28;20217;-54
2022/01/02 01:05:36;;;;;;;1.37;1.27;;;;;18.90;100696.00;;;;2088569;28;20262;-54
2022/01/02 01:06:36;;;;;;;1.50;1.40;;;;;18.90;100693.00;;;;2084877;28;20217;-54
2022/01/02 01:07:36;;;;;;;1.00;1.00;;;;;18.90;100693.00;;;;2088634;28;20220;-54
2022/01/02 01:08:37;;;;;;;1.20;1.10;;;;;18.90;100692.00;;;;2080363;28;20225;-54
2022/01/02 01:09:37;;;;;;;1.07;1.00;;;;;18.90;100695.00;;;;2080163;28;20217;-54
2022/01/02 01:10:39;;;;;;;1.40;1.30;;;;;18.90;100693.00;;;;2080001;28;20608;-54
2022/01/02 01:11:39;;;;;;;1.25;1.15;;;;;18.90;100684.00;;;;2089059;28;20217;-54
2022/01/02 01:12:40;;;;;;;1.47;1.00;;;;;18.90;100684.00;;;;2080240;28;20217;-54
2022/01/02 01:13:40;;;;;;;1.40;1.30;;;;;18.90;100684.00;;;;2080193;28;20205;-54
2022/01/02 01:14:40;;;;;;;1.27;1.17;;;;;18.90;100681.00;;;;2089158;28;20244;-54
2022/01/02 01:15:41;;;;;;;0.90;0.90;;;;;18.90;100679.00;;;;2088536;28;20205;-54
2022/01/02 01:16:42;;;;;;;1.40;1.30;;;;;18.90;100669.00;;;;2088387;28;20216;-54
2022/01/02 01:17:43;;;;;;;1.40;1.30;;;;;18.90;100682.00;;;;2089224;28;20220;-54
2022/01/02 01:18:43;;;;;;;1.20;1.10;;;;;18.90;100689.00;;;;2087523;28;20307;-54
2022/01/02 01:19:44;;;;;;;1.10;1.00;;;;;18.90;100693.00;;;;2088463;28;20205;-54
2022/01/02 01:20:45;;;;;;;1.13;1.03;;;;;18.90;100688.00;;;;2088865;28;20208;-54
2022/01/02 01:21:45;;;;;;;1.35;1.25;;;;;18.90;100684.00;;;;2089065;28;20208;-54
2022/01/02 01:22:46;;;;;;;1.20;1.03;;;;;18.90;100696.00;;;;2087977;28;20217;-54
2022/01/02 01:23:46;;;;;;;1.27;1.17;;;;;18.90;100695.00;;;;2088298;28;20223;-54
2022/01/02 01:24:46;;;;;;;1.00;0.90;;;;;18.90;100693.00;;;;2089034;28;20696;-54
2022/01/02 01:25:50;;;;;;;1.30;1.20;;;;;18.90;100693.00;;;;2089036;28;20579;-54
2022/01/02 01:26:53;;;;;;;1.20;1.10;;;;;18.90;100700.00;;;;2088943;28;20209;-53
2022/01/02 01:27:54;;;;;;;1.33;1.10;;;;;18.90;100692.00;;;;2088959;28;20220;-54
2022/01/02 01:28:54;;;;;;;1.30;0.97;;;;;18.90;100697.00;;;;2088422;28;20653;-54
2022/01/02 01:29:54;;;;;;;1.30;1.20;;;;;18.90;100696.00;;;;2088298;28;20296;-53
2022/01/02 01:30:56;;;;;;;1.20;1.10;;;;;18.90;100699.00;;;;2088719;28;20209;-54
2022/01/02 01:31:56;;;;;;;1.30;1.20;;;;;18.90;100687.00;;;;2089012;28;20217;-54
2022/01/02 01:32:57;;;;;;;1.20;1.10;;;;;18.90;100687.00;;;;2089019;28;20224;-54
2022/01/02 01:33:57;;;;;;;1.33;1.23;;;;;18.90;100687.00;;;;2088816;28;20217;-54
2022/01/02 01:34:57;;;;;;;1.10;1.00;;;;;18.90;100697.00;;;;2088794;28;20239;-54
2022/01/02 01:35:58;;;;;;;1.10;1.00;;;;;18.90;100689.00;;;;2080210;28;20204;-54
2022/01/02 01:36:58;;;;;;;1.80;0.90;;;;;18.90;100691.00;;;;2088603;28;20209;-54
2022/01/02 01:37:58;;;;;;;1.30;1.20;;;;;18.90;100694.00;;;;2088511;28;20225;-54
2022/01/02 01:38:59;;;;;;;1.00;0.90;;;;;18.90;100702.00;;;;2088489;28;20270;-53
2022/01/02 01:39:59;;;;;;;1.10;1.00;;;;;18.90;100705.00;;;;2087828;28;20323;-54
2022/01/02 01:41:09;;;;;;;1.47;1.10;;;;;18.90;100696.00;;;;2087491;28;20232;-54
2022/01/02 01:42:11;;;;;;;1.40;1.30;;;;;18.90;100705.00;;;;2087426;28;20570;-54
2022/01/02 01:43:13;;;;;;;1.30;1.10;;;;;18.90;100698.00;;;;2080137;28;20308;-54
2022/01/02 01:46:17;;;;;;;1.20;1.10;;;;;18.90;100705.00;;;;2070025;28;20214;-54
2022/01/02 01:47:18;;;;;;;1.20;1.10;;;;;18.90;100697.00;;;;2087960;28;20937;-54
2022/01/02 01:48:18;;;;;;;0.90;0.90;;;;;18.90;100701.00;;;;2079497;28;20614;-54
2022/01/02 01:49:20;;;;;;;1.20;1.10;;;;;18.90;100703.00;;;;2092147;28;20252;-54
2022/01/02 01:50:22;;;;;;;1.52;1.42;;;;;18.90;100696.00;;;;2090825;28;20234;-54
2022/01/02 01:51:23;;;;;;;1.20;1.10;;;;;18.90;100702.00;;;;2088294;28;20293;-54
2022/01/02 01:52:23;;;;;;;0.90;0.90;;;;;18.90;100688.00;;;;2079002;28;20220;-54
2022/01/02 01:53:24;;;;;;;0.90;0.90;;;;;18.90;100690.00;;;;2088311;28;20204;-54
2022/01/02 01:54:24;;;;;;;1.23;1.00;;;;;18.90;100682.00;;;;2080104;28;20259;-54
2022/01/02 01:55:24;;;;;;;1.27;1.17;;;;;18.90;100682.00;;;;2096136;28;20215;-54
2022/01/02 01:56:25;;;;;;;1.43;0.97;;;;;18.90;100687.00;;;;2091832;28;20231;-54
2022/01/02 01:57:25;;;;;;;1.10;1.00;;;;;18.90;100683.00;;;;2088154;28;20306;-54
2022/01/02 01:58:25;;;;;;;1.17;1.00;;;;;18.90;100680.00;;;;2088166;28;20208;-54
2022/01/02 01:59:26;;;;;;;1.23;1.13;;;;;18.90;100678.00;;;;2088188;28;20279;-54
2022/01/02 02:00:26;;;;;;;1.47;1.37;;;;;18.90;100675.00;;;;2088554;28;20236;-54
2022/01/02 02:01:26;;;;;;;1.60;1.27;;;;;18.90;100688.00;;;;2088776;28;20263;-54
2022/01/02 02:02:27;;;;;;;1.43;1.00;;;;;18.90;100680.00;;;;2088687;28;20236;-54
2022/01/02 02:03:27;;;;;;;1.30;1.20;;;;;18.90;100681.00;;;;2088833;28;20217;-54
2022/01/02 02:04:28;;;;;;;1.20;1.10;;;;;18.90;100674.00;;;;2088784;28;20219;-54
2022/01/02 02:05:29;;;;;;;1.23;1.13;;;;;18.90;100664.00;;;;2088726;28;20220;-54
2022/01/02 02:06:29;;;;;;;1.40;1.30;;;;;18.90;100675.00;;;;2088375;28;20216;-54
2022/01/02 02:07:38;;;;;;;1.57;1.30;;;;;18.90;100672.00;;;;2078987;28;20213;-54
2022/01/02 02:08:38;;;;;;;1.10;1.00;;;;;18.90;100679.00;;;;2081005;28;20587;-54
2022/01/02 02:11:08;;;;;;;1.20;1.10;;;;;18.90;100674.00;;;;2070843;28;20216;-53
2022/01/02 02:12:09;;;;;;;1.30;1.20;;;;;18.90;100666.00;;;;2088024;28;20673;-54
2022/01/02 02:13:09;;;;;;;1.30;1.20;;;;;18.90;100668.00;;;;2079714;28;20205;-54
2022/01/02 02:14:10;;;;;;;1.40;1.30;;;;;18.90;100669.00;;;;2087744;28;20213;-54
2022/01/02 02:15:11;;;;;;;1.27;1.03;;;;;18.90;100670.00;;;;2087926;28;20209;-57
2022/01/02 02:16:11;;;;;;;1.17;1.08;;;;;18.90;100665.00;;;;2088585;28;20221;-54
2022/01/02 02:17:12;;;;;;;1.40;1.30;;;;;18.90;100660.00;;;;2088695;28;20598;-54
2022/01/02 02:18:12;;;;;;;1.60;1.30;;;;;18.90;100659.00;;;;2088633;28;20627;-54
2022/01/02 02:19:12;;;;;;;1.20;1.10;;;;;18.90;100667.00;;;;2088478;28;20209;-54
2022/01/02 02:20:20;;;;;;;1.20;1.10;;;;;18.90;100660.00;;;;2088541;28;20204;-54
2022/01/02 02:21:31;;;;;;;1.10;1.00;;;;;18.90;100655.00;;;;2088491;28;20233;-54
2022/01/02 02:22:32;;;;;;;1.15;1.05;;;;;18.90;100653.00;;;;2088574;28;20304;-54
2022/01/02 02:23:32;;;;;;;1.17;1.07;;;;;18.90;100656.00;;;;2088562;28;20227;-54
2022/01/02 02:24:32;;;;;;;1.23;1.13;;;;;18.90;100659.00;;;;2087954;28;20240;-53
2022/01/02 02:25:35;;;;;;;1.50;1.07;;;;;18.90;100659.00;;;;2088156;28;20216;-54
2022/01/02 02:26:36;;;;;;;1.15;1.05;;;;;18.90;100664.00;;;;2088295;28;20244;-54
2022/01/02 02:27:37;;;;;;;1.20;1.10;;;;;18.90;100663.00;;;;2081391;28;20691;-54
2022/01/02 02:28:37;;;;;;;1.57;1.47;;;;;18.90;100655.00;;;;2091700;28;20228;-54
2022/01/02 02:29:37;;;;;;;1.27;1.10;;;;;18.90;100660.00;;;;2090346;28;20224;-54
2022/01/02 02:30:39;;;;;;;1.07;0.97;;;;;18.90;100657.00;;;;2088294;28;20244;-54
2022/01/02 02:31:41;;;;;;;1.70;1.00;;;;;18.90;100657.00;;;;2088549;28;20296;-54
2022/01/02 02:32:41;;;;;;;1.45;1.33;;;;;18.90;100657.00;;;;2088548;28;20227;-54
2022/01/02 02:33:42;;;;;;;1.17;1.07;;;;;18.90;100657.00;;;;2088581;28;20292;-54
2022/01/02 02:34:44;;;;;;;0.90;0.90;;;;;18.90;100651.00;;;;2088471;28;20227;-54
2022/01/02 02:35:46;;;;;;;1.20;1.10;;;;;18.90;100648.00;;;;2088196;28;20583;-54
2022/01/02 02:36:46;;;;;;;1.65;1.13;;;;;18.90;100658.00;;;;2083969;28;20231;-54
2022/01/02 02:37:47;;;;;;;1.20;1.03;;;;;18.90;100643.00;;;;2087782;28;20608;-54
2022/01/02 02:38:47;;;;;;;1.30;1.20;;;;;18.90;100655.00;;;;2088556;28;20209;-54
2022/01/02 02:39:48;;;;;;;1.10;1.00;;;;;18.90;100640.00;;;;2088324;28;20201;-54
2022/01/02 02:40:48;;;;;;;1.10;1.00;;;;;18.90;100656.00;;;;2087479;28;20238;-54
2022/01/02 02:41:49;;;;;;;1.17;1.07;;;;;18.90;100657.00;;;;2087832;28;20213;-54
2022/01/02 02:44:03;;;;;;;1.15;1.05;;;;;18.90;100656.00;;;;2076670;28;20654;-54
2022/01/02 02:48:59;;;;;;;1.38;1.27;;;;;18.90;100652.00;;;;2088491;28;20779;-54
2022/01/02 02:49:09;;;;;;;1.25;1.00;;;;;18.80;100655.00;;;;2086870;28;20216;-54
2022/01/02 02:50:09;;;;;;;2.00;1.33;;;;;18.90;100655.00;;;;2088325;28;20208;-54
2022/01/02 02:52:47;;;;;;;1.00;0.90;;;;;18.90;100655.00;;;;2071684;28;20252;-55
2022/01/02 02:53:48;;;;;;;1.30;1.20;;;;;18.90;100658.00;;;;2087933;28;20245;-54
2022/01/02 02:54:49;;;;;;;1.30;1.20;;;;;18.90;100652.00;;;;2088319;28;20270;-54
2022/01/02 02:55:55;;;;;;;1.20;1.10;;;;;18.90;100646.00;;;;2088261;28;20267;-54
2022/01/02 02:57:58;;;;;;;1.50;1.30;;;;;18.90;100629.00;;;;2088512;28;20216;-54
2022/01/02 02:58:58;;;;;;;1.15;1.05;;;;;18.90;100613.00;;;;2088299;28;20224;-54
2022/01/02 02:59:59;;;;;;;1.17;1.07;;;;;18.90;100607.00;;;;2088316;28;20580;-54
2022/01/02 03:00:59;;;;;;;1.20;1.10;;;;;18.90;100603.00;;;;2088083;28;20680;-54
2022/01/02 03:02:00;;;;;;;1.17;1.07;;;;;18.90;100595.00;;;;2088134;28;20213;-54
2022/01/02 03:03:00;;;;;;;1.27;1.17;;;;;18.90;100588.00;;;;2088020;28;20707;-54
2022/01/02 03:04:00;;;;;;;1.30;1.20;;;;;18.90;100580.00;;;;2087285;28;20197;-54
2022/01/02 03:05:01;;;;;;;1.17;1.07;;;;;18.90;100589.00;;;;2087496;28;20212;-54
2022/01/02 03:06:01;;;;;;;1.27;1.17;;;;;18.90;100587.00;;;;2087454;28;20236;-54
2022/01/02 03:07:02;;;;;;;1.10;1.00;;;;;18.90;100594.00;;;;2088211;28;20203;-54
2022/01/02 03:08:02;;;;;;;1.33;1.23;;;;;18.90;100588.00;;;;2088340;28;20205;-54
2022/01/02 03:09:08;;;;;;;1.30;1.20;;;;;18.90;100581.00;;;;2088165;28;20692;-54
2022/01/02 03:10:10;;;;;;;1.58;1.20;;;;;18.90;100583.00;;;;2088273;28;20303;-54
2022/01/02 03:11:14;;;;;;;1.20;1.10;;;;;18.90;100577.00;;;;2087348;28;20217;-53
2022/01/02 03:12:15;;;;;;;1.20;1.10;;;;;18.90;100599.00;;;;2087635;28;20332;-53
2022/01/02 03:13:15;;;;;;;1.40;1.17;;;;;18.90;100607.00;;;;2088211;28;20902;-53
2022/01/02 03:14:15;;;;;;;1.17;1.07;;;;;18.80;100593.00;;;;2088180;28;20684;-54
2022/01/02 03:15:16;;;;;;;1.17;1.07;;;;;18.90;100593.00;;;;2088292;28;20223;-54
2022/01/02 03:16:16;;;;;;;1.30;1.20;;;;;18.80;100590.00;;;;2088177;28;20269;-53
2022/01/02 03:17:17;;;;;;;1.83;1.40;;;;;18.90;100597.00;;;;2087538;28;20244;-54
2022/01/02 03:18:17;;;;;;;1.30;1.00;;;;;18.90;100598.00;;;;2087117;28;20583;-54
2022/01/02 03:19:17;;;;;;;1.30;1.20;;;;;18.90;100588.00;;;;2088224;28;20549;-54
2022/01/02 03:20:18;;;;;;;1.17;1.07;;;;;18.90;100588.00;;;;2087797;28;20681;-54
2022/01/02 03:21:18;;;;;;;1.27;1.13;;;;;18.90;100581.00;;;;2087332;28;20642;-54
2022/01/02 03:22:18;;;;;;;1.33;1.20;;;;;18.90;100581.00;;;;2087577;28;20696;-54
2022/01/02 03:23:19;;;;;;;2.67;1.10;;;;;18.90;100583.00;;;;2088188;28;20777;-54
2022/01/02 03:24:19;;;;;;;1.30;1.10;;;;;18.90;100592.00;;;;2088153;28;20581;-54
2022/01/02 03:25:19;;;;;;;1.73;1.10;;;;;18.90;100577.00;;;;2088164;28;20556;-54
2022/01/02 03:26:20;;;;;;;1.40;1.10;;;;;18.90;100583.00;;;;2088090;28;20715;-54
2022/01/02 03:27:20;;;;;;;1.30;1.20;;;;;18.90;100589.00;;;;2088306;28;20229;-54
2022/01/02 03:28:20;;;;;;;1.50;1.20;;;;;18.90;100580.00;;;;2087293;28;21666;-57
2022/01/02 03:29:21;;;;;;;1.40;1.30;;;;;18.80;100586.00;;;;2088017;28;20262;-55
2022/01/02 03:30:21;;;;;;;1.40;1.10;;;;;18.90;100589.00;;;;2087987;28;20289;-55
2022/01/02 03:31:21;;;;;;;1.20;1.10;;;;;18.90;100582.00;;;;2087449;28;20676;-55
2022/01/02 03:32:22;;;;;;;1.57;1.20;;;;;18.90;100577.00;;;;2087969;28;20232;-54
2022/01/02 03:33:22;;;;;;;1.50;1.20;;;;;18.90;100580.00;;;;2087910;28;20208;-55
2022/01/02 03:34:22;;;;;;;1.10;1.00;;;;;18.90;100571.00;;;;2088098;28;20683;-54
2022/01/02 03:35:23;;;;;;;1.50;1.40;;;;;18.90;100572.00;;;;2088130;28;20216;-55
2022/01/02 03:36:23;;;;;;;1.27;1.17;;;;;18.90;100578.00;;;;2088027;28;20220;-55
2022/01/02 03:37:28;;;;;;;1.20;1.10;;;;;18.90;100581.00;;;;2088072;28;20204;-55
2022/01/02 03:38:28;;;;;;;1.15;0.98;;;;;18.90;100582.00;;;;2084948;28;20205;-54
2022/01/02 03:39:28;;;;;;;1.10;1.00;;;;;18.90;100577.00;;;;2088045;28;20205;-54
2022/01/02 03:40:29;;;;;;;1.17;1.07;;;;;18.80;100574.00;;;;2087671;28;20262;-54
2022/01/02 03:41:29;;;;;;;1.20;1.10;;;;;18.90;100578.00;;;;2087948;28;20204;-54
2022/01/02 03:42:30;;;;;;;1.30;1.20;;;;;18.80;100572.00;;;;2088222;28;20205;-54
2022/01/02 03:43:30;;;;;;;1.50;1.23;;;;;18.80;100571.00;;;;2087983;28;20259;-54
2022/01/02 03:44:30;;;;;;;1.30;1.20;;;;;18.80;100581.00;;;;2087997;28;20565;-54
2022/01/02 03:45:31;;;;;;;1.37;1.27;;;;;18.80;100573.00;;;;2087983;28;20200;-54
2022/01/02 03:46:31;;;;;;;1.57;1.43;;;;;18.90;100574.00;;;;2084301;28;20208;-54
2022/01/02 03:47:31;;;;;;;1.10;1.00;;;;;18.80;100577.00;;;;2088102;28;20227;-54
2022/01/02 03:48:32;;;;;;;1.20;1.10;;;;;18.90;100578.00;;;;2087983;28;20208;-54
2022/01/02 03:49:32;;;;;;;1.20;1.00;;;;;18.90;100581.00;;;;2088145;28;20216;-54
2022/01/02 03:50:32;;;;;;;1.30;1.20;;;;;18.90;100583.00;;;;2087508;28;20558;-54
2022/01/02 03:51:33;;;;;;;1.20;1.10;;;;;18.90;100587.00;;;;2087933;28;20722;-54
2022/01/02 03:52:33;;;;;;;1.10;1.00;;;;;18.80;100579.00;;;;2087992;28;20715;-54
2022/01/02 03:53:34;;;;;;;1.30;1.13;;;;;18.90;100574.00;;;;2087789;28;20212;-54
2022/01/02 03:54:34;;;;;;;1.20;1.10;;;;;18.90;100563.00;;;;2087966;28;20280;-54
2022/01/02 03:55:35;;;;;;;1.20;1.00;;;;;18.90;100576.00;;;;2087980;28;20637;-54
2022/01/02 03:56:35;;;;;;;1.27;1.10;;;;;18.80;100564.00;;;;2087677;28;20229;-54
2022/01/02 03:57:35;;;;;;;1.20;1.10;;;;;18.90;100560.00;;;;2088017;28;20212;-54
2022/01/02 03:58:35;;;;;;;1.30;1.20;;;;;18.90;100558.00;;;;2087999;28;21190;-54
2022/01/02 03:59:36;;;;;;;1.33;1.20;;;;;18.90;100554.00;;;;2088058;28;20227;-54
2022/01/02 04:00:36;;;;;;;1.20;1.00;;;;;18.90;100545.00;;;;2087604;28;20217;-54
2022/01/02 04:01:36;;;;;;;1.43;1.33;;;;;18.90;100541.00;;;;2087308;28;20266;-54
2022/01/02 04:02:38;;;;;;;1.50;1.40;;;;;18.70;100540.00;;;;2087275;28;20471;-54
2022/01/02 04:03:38;;;;;;;1.30;1.10;;;;;18.80;100539.00;;;;2084199;28;20228;-54
2022/01/02 04:04:38;;;;;;;1.73;1.20;;;;;18.90;100534.00;;;;2088030;28;20216;-54
2022/01/02 04:05:39;;;;;;;1.20;1.10;;;;;18.80;100542.00;;;;2088067;28;20215;-54
2022/01/02 04:06:39;;;;;;;1.10;1.00;;;;;18.80;100536.00;;;;2087937;28;20216;-54
2022/01/02 04:07:39;;;;;;;1.57;1.07;;;;;18.90;100533.00;;;;2088034;28;20241;-54
2022/01/02 04:08:40;;;;;;;1.20;1.10;;;;;18.90;100535.00;;;;2087958;28;20216;-54
2022/01/02 04:09:40;;;;;;;1.27;1.17;;;;;18.90;100527.00;;;;2087977;28;20236;-54
2022/01/02 04:10:40;;;;;;;1.50;1.37;;;;;18.90;100531.00;;;;2087638;28;20216;-54
2022/01/02 04:11:41;;;;;;;1.40;1.30;;;;;18.90;100534.00;;;;2087918;28;20275;-54
2022/01/02 04:12:45;;;;;;;1.25;1.15;;;;;18.90;100529.00;;;;2087941;28;20380;-53
2022/01/02 04:13:45;;;;;;;1.30;1.20;;;;;18.90;100530.00;;;;2087933;28;20220;-54
2022/01/02 04:14:45;;;;;;;1.20;1.10;;;;;18.90;100543.00;;;;2087672;28;20273;-54
2022/01/02 04:15:46;;;;;;;1.37;1.27;;;;;18.80;100535.00;;;;2087890;28;21142;-53
2022/01/02 04:16:46;;;;;;;1.57;1.30;;;;;18.80;100530.00;;;;2087966;28;20227;-54
2022/01/02 04:17:46;;;;;;;1.17;0.90;;;;;18.80;100524.00;;;;2087890;28;20213;-54
2022/01/02 04:18:48;;;;;;;1.60;1.30;;;;;18.80;100522.00;;;;2087809;28;20240;-54
2022/01/02 04:19:48;;;;;;;1.52;1.13;;;;;18.80;100534.00;;;;2087931;28;20221;-54
2022/01/02 04:20:49;;;;;;;1.30;1.20;;;;;18.80;100533.00;;;;2086833;28;20693;-54
2022/01/02 04:21:49;;;;;;;1.40;1.20;;;;;18.80;100527.00;;;;2087233;28;20696;-54
2022/01/02 04:22:49;;;;;;;1.90;1.50;;;;;18.90;100529.00;;;;2087535;28;20552;-54
2022/01/02 04:23:50;;;;;;;1.17;1.00;;;;;18.90;100528.00;;;;2087783;28;20270;-54
2022/01/02 04:24:50;;;;;;;1.43;1.33;;;;;18.80;100537.00;;;;2087918;28;20216;-54
2022/01/02 04:25:50;;;;;;;1.30;1.20;;;;;18.90;100536.00;;;;2087871;28;20580;-53
2022/01/02 04:26:51;;;;;;;1.40;1.30;;;;;18.80;100532.00;;;;2087589;28;20554;-54
2022/01/02 04:27:51;;;;;;;1.30;1.20;;;;;18.80;100523.00;;;;2087135;28;20585;-54
2022/01/02 04:28:51;;;;;;;1.23;1.13;;;;;18.80;100521.00;;;;2077984;28;20917;-54
2022/01/02 04:29:52;;;;;;;1.30;1.20;;;;;18.80;100524.00;;;;2087233;28;20274;-54
2022/01/02 04:30:52;;;;;;;1.30;1.17;;;;;18.90;100522.00;;;;2088663;28;20209;-53
2022/01/02 04:31:52;;;;;;;1.27;1.17;;;;;18.80;100524.00;;;;2089357;28;20641;-54
2022/01/02 04:32:53;;;;;;;1.13;1.03;;;;;18.80;100519.00;;;;2089449;28;20216;-54
2022/01/02 04:33:53;;;;;;;1.50;1.40;;;;;18.80;100528.00;;;;2089369;28;20217;-54
2022/01/02 04:34:53;;;;;;;1.00;0.90;;;;;18.80;100523.00;;;;2089400;28;20821;-54
2022/01/02 04:35:54;;;;;;;1.30;1.20;;;;;18.90;100518.00;;;;2089448;28;20676;-54
2022/01/02 04:36:54;;;;;;;1.57;1.43;;;;;18.80;100513.00;;;;2089428;28;20692;-54
2022/01/02 04:37:54;;;;;;;1.50;1.40;;;;;18.80;100526.00;;;;2089258;28;20737;-54
2022/01/02 04:38:55;;;;;;;1.37;1.27;;;;;18.80;100520.00;;;;2088751;28;20221;-54
2022/01/02 04:39:55;;;;;;;1.20;1.07;;;;;18.90;100528.00;;;;2088741;28;20782;-54
2022/01/02 04:40:56;;;;;;;1.40;1.30;;;;;18.90;100529.00;;;;2089031;28;20711;-53
2022/01/02 04:41:56;;;;;;;1.67;1.20;;;;;18.90;100527.00;;;;2089332;28;20322;-54
2022/01/02 04:42:56;;;;;;;1.40;1.30;;;;;18.80;100529.00;;;;2089482;28;20221;-54
2022/01/02 04:43:57;;;;;;;1.37;1.27;;;;;18.90;100526.00;;;;2089469;28;20303;-54
2022/01/02 04:44:57;;;;;;;1.20;1.10;;;;;18.90;100526.00;;;;2089402;28;20224;-53
2022/01/02 04:45:57;;;;;;;1.07;0.97;;;;;18.80;100539.00;;;;2089387;28;20217;-54
2022/01/02 04:46:58;;;;;;;1.60;1.43;;;;;18.80;100524.00;;;;2089503;28;20244;-54
2022/01/02 04:47:58;;;;;;;1.50;1.40;;;;;18.90;100521.00;;;;2089342;28;20584;-54
2022/01/02 04:48:58;;;;;;;1.37;1.27;;;;;18.90;100508.00;;;;2089384;28;20215;-54
2022/01/02 04:49:59;;;;;;;1.30;1.20;;;;;18.80;100509.00;;;;2089320;28;20212;-54
2022/01/02 04:50:59;;;;;;;1.17;1.07;;;;;18.80;100501.00;;;;2089025;28;20209;-54
2022/01/02 04:51:59;;;;;;;1.20;1.10;;;;;18.90;100508.00;;;;2089413;28;20220;-54
2022/01/02 04:53:00;;;;;;;1.20;1.10;;;;;18.80;100501.00;;;;2088953;28;20241;-54
2022/01/02 04:54:00;;;;;;;1.70;1.60;;;;;18.80;100506.00;;;;2088882;28;20221;-54
2022/01/02 04:55:01;;;;;;;1.20;1.00;;;;;18.80;100510.00;;;;2089364;28;20209;-54
2022/01/02 04:56:02;;;;;;;1.20;1.10;;;;;18.70;100500.00;;;;2089142;28;20583;-55
2022/01/02 04:57:02;;;;;;;1.63;1.10;;;;;18.90;100512.00;;;;2088719;28;20219;-55
2022/01/02 04:58:04;;;;;;;1.30;1.20;;;;;18.80;100506.00;;;;2089355;28;20212;-54
2022/01/02 04:59:04;;;;;;;1.50;1.30;;;;;18.90;100505.00;;;;2089225;28;20216;-54
2022/01/02 05:00:06;;;;;;;1.30;1.20;;;;;18.90;100501.00;;;;2089241;28;20209;-54
2022/01/02 05:01:11;;;;;;;2.03;1.40;;;;;18.90;100501.00;;;;2088772;28;20236;-54
2022/01/02 05:02:11;;;;;;;1.60;1.50;;;;;18.80;100500.00;;;;2089238;28;20205;-54
2022/01/02 05:03:12;;;;;;;1.30;1.20;;;;;18.90;100496.00;;;;2089124;28;20689;-54
2022/01/02 05:04:12;;;;;;;1.33;1.23;;;;;18.80;100500.00;;;;2089263;28;20579;-54
2022/01/02 05:05:12;;;;;;;1.27;1.17;;;;;18.80;100493.00;;;;2089269;28;20293;-54
2022/01/02 05:06:13;;;;;;;1.03;0.93;;;;;18.80;100487.00;;;;2089225;28;20624;-54
2022/01/02 05:07:14;;;;;;;1.40;1.30;;;;;18.80;100490.00;;;;2089298;28;20680;-54
2022/01/02 05:08:14;;;;;;;1.40;1.30;;;;;18.80;100493.00;;;;2088975;28;20208;-54
2022/01/02 05:09:15;;;;;;;1.20;1.10;;;;;18.90;100491.00;;;;2088565;28;20584;-54
2022/01/02 05:10:15;;;;;;;1.40;1.30;;;;;18.90;100501.00;;;;2088519;28;20221;-54
2022/01/02 05:11:16;;;;;;;1.30;1.20;;;;;18.80;100500.00;;;;2088546;28;20228;-54
2022/01/02 05:12:17;;;;;;;1.65;1.25;;;;;18.80;100500.00;;;;2088911;28;20212;-54
2022/01/02 05:13:17;;;;;;;1.23;1.13;;;;;18.80;100503.00;;;;2088993;28;20213;-54
2022/01/02 05:14:17;;;;;;;2.20;1.60;;;;;18.90;100502.00;;;;2089158;28;20220;-54